createdAt,value
2022-10-16T00:04:06.884Z,4.63
2022-10-16T00:09:12.285Z,4.80
2022-10-16T00:14:18.411Z,4.13
2022-10-16T00:19:24.496Z,4.77
2022-10-16T00:24:31.703Z,4.60
2022-10-16T00:29:37.167Z,4.87
2022-10-16T00:34:44.868Z,4.77
2022-10-16T00:39:50.432Z,4.80
2022-10-16T00:44:57.124Z,5.77
2022-10-16T00:50:04.463Z,4.73
2022-10-16T00:55:14.039Z,5.20
2022-10-16T01:00:21.784Z,4.87
2022-10-16T01:05:28.895Z,5.03
2022-10-16T01:10:44.497Z,4.53
2022-10-16T01:15:53.789Z,5.30
2022-10-16T01:21:05.449Z,5.00
2022-10-16T01:26:26.347Z,5.17
2022-10-16T01:31:36.871Z,4.77
2022-10-16T01:36:44.860Z,4.83
2022-10-16T01:41:52.800Z,4.70
2022-10-16T01:46:58.878Z,4.60
2022-10-16T01:52:07.977Z,4.30
2022-10-16T01:57:12.674Z,4.73
2022-10-16T02:02:19.852Z,4.80
2022-10-16T02:07:26.882Z,5.03
2022-10-16T02:12:33.728Z,4.40
2022-10-16T02:17:38.901Z,5.00
2022-10-16T02:22:45.944Z,4.50
2022-10-16T02:27:56.248Z,4.70
2022-10-16T02:33:03.138Z,5.10
2022-10-16T02:38:07.987Z,4.80
2022-10-16T02:43:12.221Z,4.60
2022-10-16T02:48:17.399Z,4.97
2022-10-16T02:53:21.070Z,5.47
2022-10-16T02:58:25.685Z,5.07
2022-10-16T03:03:39.805Z,5.20
2022-10-16T03:08:43.504Z,4.57
2022-10-16T03:13:47.177Z,5.40
2022-10-16T03:18:55.476Z,4.70
2022-10-16T03:24:01.679Z,5.00
2022-10-16T03:29:14.635Z,5.60
2022-10-16T03:34:19.889Z,5.27
2022-10-16T03:39:25.503Z,5.50
2022-10-16T03:44:30.298Z,5.37
2022-10-16T03:49:36.794Z,5.47
2022-10-16T03:54:40.546Z,5.33
2022-10-16T03:59:44.736Z,5.03
2022-10-16T04:04:49.917Z,4.90
2022-10-16T04:09:54.654Z,4.80
2022-10-16T04:14:58.338Z,5.10
2022-10-16T04:20:03.484Z,5.07
2022-10-16T04:25:07.858Z,5.27
2022-10-16T04:30:13.426Z,5.07
2022-10-16T04:35:18.837Z,5.27
2022-10-16T04:40:22.512Z,5.27
2022-10-16T04:45:26.321Z,5.07
2022-10-16T04:50:31.644Z,5.20
2022-10-16T04:55:36.872Z,5.07
2022-10-16T05:00:40.529Z,5.07
2022-10-16T05:05:48.497Z,5.13
2022-10-16T05:10:55.163Z,4.57
2022-10-16T05:16:01.124Z,4.63
2022-10-16T05:21:07.176Z,4.57
2022-10-16T05:26:12.559Z,5.27
2022-10-16T05:31:16.562Z,5.60
2022-10-16T05:36:21.473Z,5.70
2022-10-16T05:41:26.935Z,5.10
2022-10-16T05:46:30.412Z,5.23
2022-10-16T05:51:35.439Z,5.33
2022-10-16T05:56:38.917Z,5.60
2022-10-16T06:01:42.508Z,5.50
2022-10-16T06:06:47.523Z,6.03
2022-10-16T06:11:51.127Z,5.97
2022-10-16T06:16:54.617Z,5.83
2022-10-16T06:22:00.120Z,5.87
2022-10-16T06:27:03.600Z,7.47
2022-10-16T06:32:09.924Z,6.10
2022-10-16T06:37:18.093Z,6.53
2022-10-16T06:42:21.873Z,5.87
2022-10-16T06:47:25.388Z,5.80
2022-10-16T06:52:32.398Z,5.77
2022-10-16T06:57:35.895Z,5.40
2022-10-16T07:02:39.604Z,6.23
2022-10-16T07:07:44.655Z,6.67
2022-10-16T07:12:48.406Z,6.90
2022-10-16T07:17:52.079Z,6.50
2022-10-16T07:22:57.102Z,7.60
2022-10-16T07:28:00.710Z,6.47
2022-10-16T07:33:04.312Z,6.60
2022-10-16T07:38:12.729Z,6.40
2022-10-16T07:43:30.448Z,5.97
2022-10-16T07:48:36.281Z,5.83
2022-10-16T07:53:42.778Z,5.40
2022-10-16T07:58:47.037Z,5.73
2022-10-16T08:03:52.157Z,5.40
2022-10-16T08:08:57.822Z,5.27
2022-10-16T08:14:01.416Z,4.83
2022-10-16T08:19:05.003Z,4.40
2022-10-16T08:24:10.249Z,4.60
2022-10-16T08:29:13.846Z,4.30
2022-10-16T08:34:17.350Z,4.83
2022-10-16T08:39:22.390Z,4.57
2022-10-16T08:44:51.603Z,4.80
2022-10-16T08:50:00.659Z,4.83
2022-10-16T08:55:07.359Z,4.57
2022-10-16T09:00:16.148Z,4.43
2022-10-16T09:05:34.682Z,4.37
2022-10-16T09:10:48.863Z,4.87
2022-10-16T09:15:59.983Z,4.20
2022-10-16T09:21:12.215Z,4.13
2022-10-16T10:56:43.571Z,4.40
2022-10-16T11:02:12.872Z,3.63
2022-10-16T11:07:21.431Z,4.20
2022-10-16T11:30:12.149Z,3.60
2022-10-16T11:35:27.633Z,3.63
2022-10-16T11:40:39.261Z,4.07
2022-10-16T11:45:47.200Z,4.10
2022-10-16T11:50:55.282Z,3.80
2022-10-16T11:55:59.022Z,3.80
2022-10-16T12:01:20.877Z,3.47
2022-10-16T12:06:40.299Z,3.50
2022-10-16T12:11:47.486Z,3.40
2022-10-16T12:16:58.130Z,3.50
2022-10-16T12:22:07.999Z,3.40
2022-10-16T12:27:30.000Z,3.53
2022-10-16T12:32:49.525Z,3.30
2022-10-16T12:38:19.564Z,3.30
2022-10-16T12:49:55.265Z,3.53
2022-10-16T13:05:45.305Z,3.30
2022-10-16T14:37:20.693Z,2.00
2022-10-16T14:42:42.655Z,2.00
2022-10-16T14:47:57.186Z,2.00
2022-10-16T14:53:01.507Z,1.90
2022-10-16T14:58:32.291Z,1.73
2022-10-16T15:03:37.383Z,1.60
2022-10-16T15:08:44.758Z,2.20
2022-10-16T15:13:49.967Z,1.77
2022-10-16T15:18:54.229Z,1.90
2022-10-16T15:23:59.068Z,2.13
2022-10-16T15:29:04.625Z,1.80
2022-10-16T16:54:16.265Z,1.90
2022-10-16T19:14:54.255Z,2.77
2022-10-16T19:20:30.769Z,2.03
2022-10-16T19:26:09.586Z,2.00
2022-10-16T19:31:16.797Z,2.23
2022-10-16T19:42:51.577Z,2.33
2022-10-16T19:47:56.798Z,2.27
2022-10-16T19:53:02.543Z,1.90
2022-10-16T19:58:08.359Z,2.60
2022-10-16T20:03:12.848Z,2.47
2022-10-16T20:08:19.835Z,2.10
2022-10-16T20:13:25.891Z,2.10
2022-10-16T20:18:30.443Z,2.63
2022-10-16T20:23:36.107Z,2.63
2022-10-16T20:28:43.888Z,3.10
2022-10-16T20:33:48.145Z,2.73
2022-10-16T20:38:52.651Z,2.17
2022-10-16T20:44:00.627Z,2.50
2022-10-16T20:49:11.316Z,2.50
2022-10-16T20:54:25.396Z,2.10
2022-10-16T20:59:31.005Z,2.10
2022-10-16T21:04:34.845Z,2.30
2022-10-16T21:09:38.618Z,3.20
2022-10-16T21:15:12.926Z,3.23
2022-10-16T21:20:11.073Z,3.30
2022-10-16T21:25:18.025Z,3.10
2022-10-16T21:30:24.298Z,3.13
2022-10-16T21:35:28.712Z,2.90
2022-10-16T21:40:32.643Z,2.77
2022-10-16T21:45:37.912Z,3.30
2022-10-16T21:50:41.847Z,3.60
2022-10-16T21:55:45.703Z,3.70
2022-10-16T22:00:50.881Z,3.93
2022-10-16T22:05:56.948Z,3.40
2022-10-16T22:11:09.265Z,3.60
2022-10-16T22:16:14.735Z,3.80
2022-10-16T22:21:18.499Z,3.47
2022-10-16T22:26:22.558Z,3.33
2022-10-16T22:37:29.521Z,3.57
2022-10-16T22:42:33.731Z,3.50
2022-10-16T22:47:37.486Z,4.00
2022-10-16T22:52:42.684Z,3.40
2022-10-16T22:57:46.444Z,3.70
2022-10-16T23:02:50.217Z,3.40
2022-10-16T23:07:55.485Z,3.50
2022-10-16T23:12:59.165Z,4.00
2022-10-16T23:18:02.838Z,3.50
2022-10-16T23:23:08.165Z,3.93
2022-10-16T23:28:13.111Z,3.77
2022-10-16T23:33:16.938Z,4.00
2022-10-16T23:38:22.097Z,4.67
2022-10-16T23:43:25.743Z,4.00
2022-10-16T23:48:30.246Z,3.90
2022-10-16T23:53:35.927Z,4.43
2022-10-16T23:58:39.716Z,3.83
